createdAt,value
2019-04-30T00:00:42.954Z,6.30
2019-04-30T00:03:31.667Z,6.00
2019-04-30T00:06:07.181Z,6.08
2019-04-30T00:08:40.941Z,6.10
2019-04-30T00:11:16.005Z,6.00
2019-04-30T00:13:57.243Z,6.20
2019-04-30T00:16:25.844Z,6.33
2019-04-30T00:19:00.823Z,6.50
2019-04-30T00:21:36.104Z,5.72
2019-04-30T00:24:10.303Z,6.22
2019-04-30T00:26:46.794Z,6.20
2019-04-30T00:29:26.685Z,5.83
2019-04-30T00:32:03.918Z,6.00
2019-04-30T00:34:35.973Z,5.53
2019-04-30T00:37:13.972Z,5.85
2019-04-30T00:39:51.160Z,6.10
2019-04-30T00:42:24.299Z,6.15
2019-04-30T00:44:59.704Z,6.00
2019-04-30T00:47:31.654Z,5.58
2019-04-30T00:50:05.984Z,5.58
2019-04-30T00:52:41.141Z,6.30
2019-04-30T00:55:15.138Z,6.12
2019-04-30T00:57:48.719Z,6.12
2019-04-30T01:00:28.153Z,6.17
2019-04-30T01:03:09.114Z,5.78
2019-04-30T01:05:46.477Z,6.05
2019-04-30T01:08:21.049Z,5.87
2019-04-30T01:10:52.200Z,6.30
2019-04-30T01:13:25.911Z,5.87
2019-04-30T01:15:59.725Z,6.10
2019-04-30T01:18:33.428Z,6.12
2019-04-30T01:21:11.049Z,6.22
2019-04-30T01:23:51.611Z,5.90
2019-04-30T01:26:18.760Z,6.00
2019-04-30T01:28:53.666Z,6.35
2019-04-30T01:31:31.676Z,5.80
2019-04-30T01:34:05.207Z,6.03
2019-04-30T01:36:39.230Z,6.05
2019-04-30T01:39:13.151Z,5.95
2019-04-30T01:41:48.632Z,6.33
2019-04-30T01:44:22.164Z,6.83
2019-04-30T01:46:55.886Z,6.30
2019-04-30T01:49:41.553Z,5.78
2019-04-30T01:52:05.119Z,6.10
2019-04-30T01:54:39.184Z,6.22
2019-04-30T01:57:49.040Z,6.22
2019-04-30T02:00:29.322Z,5.45
2019-04-30T02:03:03.188Z,5.83
2019-04-30T02:05:38.572Z,6.05
2019-04-30T02:08:12.679Z,5.60
2019-04-30T02:10:46.358Z,6.40
2019-04-30T02:13:20.102Z,6.17
2019-04-30T02:15:53.908Z,6.00
2019-04-30T02:18:29.453Z,6.30
2019-04-30T02:21:03.178Z,5.97
2019-04-30T02:23:37.007Z,6.67
2019-04-30T02:26:10.735Z,6.10
2019-04-30T02:28:44.565Z,6.03
2019-04-30T02:31:19.459Z,6.35
2019-04-30T02:34:00.302Z,5.90
2019-04-30T02:36:42.941Z,6.08
2019-04-30T02:39:16.748Z,6.15
2019-04-30T02:41:50.773Z,5.78
2019-04-30T02:44:24.766Z,6.35
2019-04-30T02:47:00.373Z,5.95
2019-04-30T02:49:34.274Z,5.53
2019-04-30T02:52:09.209Z,6.42
2019-04-30T02:54:43.466Z,6.25
2019-04-30T02:57:20.491Z,6.25
2019-04-30T03:00:12.771Z,6.42
2019-04-30T03:02:46.842Z,5.87
2019-04-30T03:05:20.622Z,5.80
2019-04-30T03:07:54.437Z,5.85
2019-04-30T03:10:30.209Z,5.87
2019-04-30T03:13:04.705Z,6.17
2019-04-30T03:15:39.508Z,5.58
2019-04-30T03:18:30.233Z,6.58
2019-04-30T03:21:10.051Z,6.22
2019-04-30T03:23:43.876Z,6.15
2019-04-30T03:26:19.997Z,6.17
2019-04-30T03:28:53.105Z,6.67
2019-04-30T03:31:26.830Z,5.83
2019-04-30T03:34:02.386Z,5.80
2019-04-30T03:36:36.246Z,5.95
2019-04-30T03:39:11.142Z,5.80
2019-04-30T03:41:45.085Z,6.10
2019-04-30T03:44:25.423Z,6.42
2019-04-30T03:46:54.410Z,5.97
2019-04-30T03:49:29.905Z,6.10
2019-04-30T03:52:03.524Z,5.60
2019-04-30T03:54:37.156Z,5.80
2019-04-30T03:57:11.092Z,6.15
2019-04-30T03:59:44.927Z,6.05
2019-04-30T04:02:40.674Z,6.22
2019-04-30T04:05:50.257Z,5.90
2019-04-30T04:08:39.091Z,5.70
2019-04-30T04:11:19.949Z,6.08
2019-04-30T04:13:53.674Z,6.40
2019-04-30T04:16:29.370Z,5.80
2019-04-30T04:19:03.141Z,6.12
2019-04-30T04:21:39.146Z,6.15
2019-04-30T04:24:12.790Z,6.10
2019-04-30T04:26:46.527Z,6.05
2019-04-30T04:29:20.224Z,5.60
2019-04-30T04:31:53.951Z,6.03
2019-04-30T04:34:30.129Z,5.60
2019-04-30T04:37:03.124Z,5.65
2019-04-30T04:39:38.906Z,5.90
2019-04-30T04:42:13.028Z,6.15
2019-04-30T04:44:49.814Z,5.80
2019-04-30T04:47:22.110Z,5.92
2019-04-30T04:49:55.789Z,5.72
2019-04-30T04:52:31.439Z,5.70
2019-04-30T04:55:05.091Z,6.30
2019-04-30T04:57:40.012Z,5.70
2019-04-30T05:00:14.179Z,5.72
2019-04-30T05:02:55.179Z,5.75
2019-04-30T05:05:29.910Z,5.72
2019-04-30T05:08:03.788Z,5.83
2019-04-30T05:10:39.209Z,5.53
2019-04-30T05:13:12.973Z,5.12
2019-04-30T05:15:46.573Z,5.60
2019-04-30T05:18:22.689Z,5.53
2019-04-30T05:20:55.998Z,5.70
2019-04-30T05:23:30.028Z,5.97
2019-04-30T05:26:03.693Z,6.67
2019-04-30T05:28:39.320Z,7.03
2019-04-30T05:31:14.619Z,6.03
2019-04-30T05:33:48.923Z,5.87
2019-04-30T05:36:22.998Z,6.28
2019-04-30T05:38:58.571Z,7.90
2019-04-30T05:41:32.417Z,6.60
2019-04-30T05:44:06.185Z,7.17
2019-04-30T05:46:39.869Z,5.83
2019-04-30T05:49:13.735Z,5.97
2019-04-30T05:51:55.563Z,6.53
2019-04-30T05:54:22.932Z,6.50
2019-04-30T05:56:56.917Z,6.58
2019-04-30T05:59:30.668Z,6.62
2019-04-30T06:02:04.406Z,6.22
2019-04-30T06:04:38.735Z,5.75
2019-04-30T06:07:12.589Z,5.87
2019-04-30T06:10:04.179Z,6.20
2019-04-30T06:13:02.633Z,6.00
2019-04-30T06:15:55.291Z,6.37
2019-04-30T06:18:29.115Z,6.03
2019-04-30T06:21:03.031Z,7.40
2019-04-30T06:23:36.681Z,7.25
2019-04-30T06:26:13.004Z,8.90
2019-04-30T06:28:45.888Z,12.07
2019-04-30T06:31:31.669Z,12.40
2019-04-30T06:33:55.182Z,10.68
2019-04-30T06:36:28.920Z,11.33
2019-04-30T06:39:02.984Z,13.10
2019-04-30T06:41:36.724Z,11.88
2019-04-30T06:44:10.459Z,12.70
2019-04-30T06:46:44.317Z,12.65
2019-04-30T06:49:19.472Z,11.03
2019-04-30T06:51:53.413Z,9.75
2019-04-30T06:54:28.740Z,9.95
2019-04-30T06:57:03.066Z,10.78
2019-04-30T06:59:36.684Z,9.93
2019-04-30T07:02:10.470Z,10.53
2019-04-30T07:04:44.399Z,9.15
2019-04-30T07:07:22.883Z,9.75
2019-04-30T07:10:21.213Z,10.50
2019-04-30T07:13:03.085Z,11.10
2019-04-30T07:15:37.100Z,10.00
2019-04-30T07:18:10.723Z,10.35
2019-04-30T07:20:44.536Z,9.98
2019-04-30T07:23:18.852Z,10.18
2019-04-30T07:25:52.752Z,9.73
2019-04-30T07:28:41.213Z,9.43
2019-04-30T07:33:39.640Z,9.80
2019-04-30T07:36:13.539Z,9.28
2019-04-30T07:38:54.511Z,9.98
2019-04-30T07:41:24.247Z,9.38
2019-04-30T07:43:59.343Z,10.03
2019-04-30T07:46:35.361Z,9.55
2019-04-30T07:49:10.095Z,9.83
2019-04-30T07:51:44.560Z,8.85
2019-04-30T07:54:19.076Z,8.33
2019-04-30T07:56:52.912Z,8.58
2019-04-30T07:59:26.559Z,9.05
2019-04-30T08:02:10.187Z,8.48
2019-04-30T08:05:03.565Z,8.30
2019-04-30T08:07:39.087Z,8.18
2019-04-30T08:09:36.807Z,9.48
2019-04-30T08:10:13.289Z,7.87
2019-04-30T08:12:49.906Z,8.50
2019-04-30T08:15:22.927Z,8.35
2019-04-30T08:18:03.679Z,7.80
2019-04-30T08:20:32.866Z,8.25
2019-04-30T08:23:15.565Z,7.65
2019-04-30T08:25:42.022Z,8.53
2019-04-30T08:28:15.637Z,7.95
2019-04-30T08:30:49.292Z,8.00
2019-04-30T08:33:23.037Z,7.75
2019-04-30T08:35:57.006Z,7.72
2019-04-30T08:38:31.640Z,8.25
2019-04-30T08:41:05.621Z,8.53
2019-04-30T08:43:39.556Z,7.60
2019-04-30T08:46:13.177Z,7.62
2019-04-30T08:48:51.666Z,8.25
2019-04-30T08:51:22.914Z,7.30
2019-04-30T08:53:58.547Z,7.83
2019-04-30T08:56:32.357Z,8.18
2019-04-30T08:59:05.983Z,8.28
2019-04-30T09:01:39.756Z,8.08
2019-04-30T09:04:13.511Z,8.05
2019-04-30T09:06:49.162Z,7.87
2019-04-30T09:09:23.976Z,8.10
2019-04-30T09:11:59.203Z,8.50
2019-04-30T09:14:33.267Z,8.43
2019-04-30T09:17:07.006Z,9.75
2019-04-30T09:19:40.670Z,9.55
2019-04-30T09:22:15.288Z,9.53
2019-04-30T09:24:49.870Z,10.55
2019-04-30T09:27:23.816Z,10.93
2019-04-30T09:29:58.826Z,11.70
2019-04-30T09:32:33.229Z,11.85
2019-04-30T09:35:07.120Z,11.20
2019-04-30T09:37:41.727Z,11.38
2019-04-30T09:40:18.599Z,11.70
2019-04-30T09:42:51.693Z,10.82
2019-04-30T09:45:25.494Z,10.65
2019-04-30T09:47:59.332Z,10.85
2019-04-30T09:50:33.852Z,11.35
2019-04-30T09:53:10.058Z,10.75
2019-04-30T09:55:43.709Z,13.10
2019-04-30T09:58:20.414Z,11.18
2019-04-30T10:00:52.782Z,10.82
2019-04-30T10:03:26.786Z,10.82
2019-04-30T10:06:00.525Z,10.40
2019-04-30T10:08:46.091Z,10.40
2019-04-30T10:11:27.618Z,9.85
2019-04-30T10:14:01.605Z,10.03
2019-04-30T10:16:44.233Z,10.18
2019-04-30T10:19:19.149Z,9.80
2019-04-30T10:21:53.186Z,10.00
2019-04-30T10:24:27.197Z,9.70
2019-04-30T10:27:01.691Z,9.40
2019-04-30T10:29:35.344Z,9.43
2019-04-30T10:32:09.253Z,9.53
2019-04-30T10:34:44.243Z,9.65
2019-04-30T10:37:18.908Z,13.58
2019-04-30T10:39:52.798Z,13.55
2019-04-30T10:42:28.739Z,13.20
2019-04-30T10:45:02.440Z,50.15
2019-04-30T10:47:36.672Z,95.92
2019-04-30T10:50:10.999Z,20.80
2019-04-30T10:52:44.757Z,22.82
2019-04-30T10:55:18.582Z,17.62
2019-04-30T10:57:54.553Z,15.32
2019-04-30T11:00:42.112Z,18.57
2019-04-30T11:03:19.721Z,18.50
2019-04-30T11:05:51.352Z,17.75
2019-04-30T11:08:25.016Z,16.95
2019-04-30T11:10:58.725Z,17.12
2019-04-30T11:13:32.445Z,17.80
2019-04-30T11:16:12.606Z,16.55
2019-04-30T11:18:42.430Z,15.83
2019-04-30T11:21:16.637Z,16.75
2019-04-30T11:23:50.769Z,16.77
2019-04-30T11:26:25.202Z,16.85
2019-04-30T11:28:59.810Z,16.67
2019-04-30T11:31:58.663Z,15.58
2019-04-30T11:34:32.921Z,15.95
2019-04-30T11:37:06.805Z,16.40
2019-04-30T11:39:40.520Z,15.50
2019-04-30T11:42:14.322Z,12.98
2019-04-30T11:44:48.798Z,13.32
2019-04-30T11:47:29.382Z,15.50
2019-04-30T11:50:03.762Z,12.73
2019-04-30T11:52:37.366Z,14.58
2019-04-30T11:55:12.425Z,14.35
2019-04-30T11:57:46.533Z,14.70
2019-04-30T12:00:26.839Z,14.20
2019-04-30T12:03:00.562Z,13.65
2019-04-30T12:05:34.323Z,13.43
2019-04-30T12:08:14.609Z,13.05
2019-04-30T12:10:53.807Z,13.55
2019-04-30T12:13:29.260Z,13.55
2019-04-30T12:16:03.505Z,13.10
2019-04-30T12:18:37.127Z,12.88
2019-04-30T12:21:10.996Z,13.05
2019-04-30T12:23:44.836Z,13.30
2019-04-30T12:26:19.110Z,12.50
2019-04-30T12:28:53.008Z,13.13
2019-04-30T12:31:27.073Z,12.70
2019-04-30T12:34:00.856Z,13.28
2019-04-30T12:36:34.483Z,13.10
2019-04-30T12:39:08.784Z,11.35
2019-04-30T12:41:42.516Z,11.50
2019-04-30T12:44:16.429Z,12.45
2019-04-30T12:46:50.449Z,12.90
2019-04-30T12:49:24.118Z,12.70
2019-04-30T12:52:10.164Z,12.30
2019-04-30T12:55:15.266Z,11.80
2019-04-30T12:57:58.191Z,12.30
2019-04-30T13:00:23.293Z,11.68
2019-04-30T13:02:58.291Z,12.47
2019-04-30T13:05:32.208Z,11.35
2019-04-30T13:08:06.549Z,10.60
2019-04-30T13:10:41.746Z,10.32
2019-04-30T13:13:16.456Z,10.82
2019-04-30T13:15:50.778Z,10.18
2019-04-30T13:18:24.640Z,11.55
2019-04-30T13:20:58.912Z,11.60
2019-04-30T13:23:33.160Z,10.72
2019-04-30T13:26:08.806Z,10.58
2019-04-30T13:28:57.787Z,10.68
2019-04-30T13:31:31.823Z,10.95
2019-04-30T13:34:29.800Z,11.18
2019-04-30T13:37:03.028Z,10.40
2019-04-30T13:39:52.349Z,9.20
2019-04-30T13:42:25.722Z,10.18
2019-04-30T13:44:59.467Z,10.23
2019-04-30T13:47:35.778Z,9.85
2019-04-30T13:50:09.644Z,10.63
2019-04-30T13:52:43.572Z,10.25
2019-04-30T13:55:19.217Z,10.05
2019-04-30T13:57:52.997Z,10.15
2019-04-30T14:00:29.680Z,9.90
2019-04-30T14:03:10.622Z,10.25
2019-04-30T14:05:44.621Z,9.60
2019-04-30T14:08:41.668Z,9.05
2019-04-30T14:11:15.667Z,9.20
2019-04-30T14:13:49.675Z,9.85
2019-04-30T14:16:23.464Z,9.28
2019-04-30T14:18:58.598Z,9.43
2019-04-30T14:21:35.281Z,9.10
2019-04-30T14:24:09.474Z,8.90
2019-04-30T14:26:43.419Z,8.70
2019-04-30T14:29:17.223Z,9.50
2019-04-30T14:31:50.960Z,8.75
2019-04-30T14:34:24.742Z,9.25
2019-04-30T14:36:59.398Z,8.63
2019-04-30T14:39:33.495Z,9.35
2019-04-30T14:42:10.499Z,9.13
2019-04-30T14:44:43.483Z,9.83
2019-04-30T14:47:27.954Z,9.33
2019-04-30T14:50:13.171Z,8.68
2019-04-30T14:53:03.816Z,8.70
2019-04-30T14:55:54.759Z,9.15
2019-04-30T14:58:46.174Z,9.50
2019-04-30T15:01:29.375Z,9.88
2019-04-30T15:04:03.244Z,9.15
2019-04-30T15:06:37.018Z,9.20
2019-04-30T15:09:11.730Z,8.90
2019-04-30T15:11:45.449Z,9.05
2019-04-30T15:14:20.959Z,8.88
2019-04-30T15:16:54.820Z,8.80
2019-04-30T15:19:28.596Z,8.83
2019-04-30T15:22:03.955Z,9.33
2019-04-30T15:24:39.395Z,9.00
2019-04-30T15:27:13.378Z,8.45
2019-04-30T15:29:49.084Z,9.03
2019-04-30T15:32:22.863Z,8.93
2019-04-30T15:34:56.639Z,9.10
2019-04-30T15:37:30.320Z,11.97
2019-04-30T15:40:04.493Z,10.75
2019-04-30T15:42:41.997Z,9.68
2019-04-30T15:45:19.155Z,9.80
2019-04-30T15:47:52.995Z,9.73
2019-04-30T15:50:26.798Z,9.58
2019-04-30T15:53:00.482Z,8.63
2019-04-30T15:55:34.199Z,9.23
2019-04-30T15:58:17.819Z,8.78
2019-04-30T16:00:52.050Z,8.88
2019-04-30T16:03:28.332Z,9.48
2019-04-30T16:06:03.511Z,8.38
2019-04-30T16:08:42.876Z,15.43
2019-04-30T16:11:34.966Z,11.48
2019-04-30T16:14:23.961Z,13.70
2019-04-30T16:17:05.189Z,18.17
2019-04-30T16:19:39.067Z,14.30
2019-04-30T16:22:12.897Z,13.08
2019-04-30T16:24:46.889Z,12.05
2019-04-30T16:27:20.581Z,11.43
2019-04-30T16:29:54.430Z,12.85
2019-04-30T16:32:28.182Z,12.68
2019-04-30T16:35:02.314Z,13.93
2019-04-30T16:37:36.056Z,12.68
2019-04-30T16:40:10.459Z,13.28
2019-04-30T16:42:44.303Z,10.88
2019-04-30T16:45:19.463Z,11.97
2019-04-30T16:47:53.272Z,11.35
2019-04-30T16:50:27.107Z,12.43
2019-04-30T16:53:00.932Z,12.50
2019-04-30T16:55:34.746Z,13.05
2019-04-30T16:58:11.001Z,12.23
2019-04-30T17:00:44.843Z,11.80
2019-04-30T17:03:38.803Z,11.45
2019-04-30T17:06:17.020Z,12.80
2019-04-30T17:08:58.466Z,12.40
2019-04-30T17:11:50.406Z,13.53
2019-04-30T17:14:24.131Z,13.60
2019-04-30T17:16:59.632Z,11.33
2019-04-30T17:19:33.251Z,12.20
2019-04-30T17:22:06.932Z,12.33
2019-04-30T17:24:40.633Z,11.70
2019-04-30T17:27:19.249Z,12.88
2019-04-30T17:29:49.809Z,11.90
2019-04-30T17:32:23.473Z,12.00
2019-04-30T17:34:58.856Z,12.58
2019-04-30T17:37:32.735Z,11.57
2019-04-30T17:40:09.231Z,14.25
2019-04-30T17:42:42.702Z,13.80
2019-04-30T17:45:16.525Z,16.97
2019-04-30T17:47:50.555Z,18.90
2019-04-30T17:50:24.471Z,18.45
2019-04-30T17:53:00.514Z,23.45
2019-04-30T17:55:33.652Z,22.87
2019-04-30T17:58:09.565Z,22.87
2019-04-30T18:00:48.739Z,28.65
2019-04-30T18:03:22.893Z,29.75
2019-04-30T18:05:56.893Z,28.20
2019-04-30T18:08:30.569Z,24.57
2019-04-30T18:11:04.324Z,21.37
2019-04-30T18:13:38.082Z,22.00
2019-04-30T18:16:11.803Z,30.32
2019-04-30T18:18:51.698Z,23.40
2019-04-30T18:21:35.511Z,23.00
2019-04-30T18:24:26.501Z,25.60
2019-04-30T18:27:05.516Z,24.20
2019-04-30T18:29:39.284Z,24.55
2019-04-30T18:32:13.314Z,23.62
2019-04-30T18:34:49.027Z,23.05
2019-04-30T18:37:22.941Z,20.90
2019-04-30T18:39:59.987Z,19.25
2019-04-30T18:42:33.043Z,21.85
2019-04-30T18:45:06.926Z,19.82
2019-04-30T18:47:40.771Z,22.40
2019-04-30T18:50:14.557Z,21.97
2019-04-30T18:52:50.677Z,20.45
2019-04-30T18:55:24.628Z,19.55
2019-04-30T18:58:01.224Z,20.35
2019-04-30T19:00:41.064Z,19.37
2019-04-30T19:03:14.692Z,19.70
2019-04-30T19:05:52.269Z,18.57
2019-04-30T19:08:42.985Z,19.45
2019-04-30T19:11:32.042Z,17.67
2019-04-30T19:14:36.511Z,17.23
2019-04-30T19:17:29.461Z,15.95
2019-04-30T19:20:31.269Z,15.18
2019-04-30T19:23:05.074Z,13.35
2019-04-30T19:25:38.810Z,15.48
2019-04-30T19:28:14.565Z,14.78
2019-04-30T19:30:55.778Z,16.25
2019-04-30T19:33:24.668Z,15.08
2019-04-30T19:35:58.664Z,15.28
2019-04-30T19:38:33.078Z,13.95
2019-04-30T19:41:10.483Z,14.03
2019-04-30T19:43:43.402Z,13.80
2019-04-30T19:46:18.745Z,13.80
2019-04-30T19:48:52.544Z,13.62
2019-04-30T19:51:26.348Z,14.03
2019-04-30T19:54:00.605Z,12.93
2019-04-30T19:56:34.415Z,13.58
2019-04-30T19:59:08.754Z,12.98
2019-04-30T20:01:42.886Z,13.88
2019-04-30T20:04:18.552Z,12.90
2019-04-30T20:06:52.446Z,12.13
2019-04-30T20:09:26.375Z,12.70
2019-04-30T20:12:00.154Z,12.68
2019-04-30T20:14:33.851Z,11.25
2019-04-30T20:17:08.904Z,12.80
2019-04-30T20:19:43.042Z,11.70
2019-04-30T20:22:16.892Z,12.68
2019-04-30T20:24:51.167Z,12.00
2019-04-30T20:27:25.648Z,12.23
2019-04-30T20:29:59.392Z,12.28
2019-04-30T20:32:36.217Z,11.95
2019-04-30T20:35:09.743Z,12.28
2019-04-30T20:38:01.034Z,11.93
2019-04-30T20:40:43.301Z,11.48
2019-04-30T20:43:11.743Z,11.80
2019-04-30T20:45:45.506Z,11.05
2019-04-30T20:48:19.241Z,11.28
2019-04-30T20:50:53.055Z,11.83
2019-04-30T20:53:26.971Z,11.38
2019-04-30T20:56:00.784Z,11.30
2019-04-30T20:58:34.656Z,10.82
2019-04-30T21:01:09.646Z,11.08
2019-04-30T21:03:43.647Z,11.03
2019-04-30T21:06:19.645Z,11.08
2019-04-30T21:08:53.047Z,10.53
2019-04-30T21:11:26.862Z,10.40
2019-04-30T21:14:00.736Z,10.18
2019-04-30T21:16:34.413Z,10.50
2019-04-30T21:19:08.570Z,10.93
2019-04-30T21:21:42.671Z,10.90
2019-04-30T21:24:16.456Z,10.78
2019-04-30T21:26:50.439Z,11.10
2019-04-30T21:29:24.190Z,10.05
2019-04-30T21:32:29.139Z,10.72
2019-04-30T21:35:27.637Z,10.13
2019-04-30T21:38:02.996Z,10.18
2019-04-30T21:40:39.430Z,10.13
2019-04-30T21:43:13.395Z,10.48
2019-04-30T21:45:49.253Z,10.48
2019-04-30T21:48:23.221Z,9.83
2019-04-30T21:50:58.970Z,9.58
2019-04-30T21:53:33.023Z,10.35
2019-04-30T21:56:08.239Z,10.15
2019-04-30T21:58:42.000Z,10.30
2019-04-30T22:03:54.432Z,10.48
2019-04-30T22:06:29.631Z,9.68
2019-04-30T22:09:04.462Z,9.25
2019-04-30T22:11:39.490Z,10.03
2019-04-30T22:14:13.495Z,9.53
2019-04-30T22:16:49.429Z,9.43
2019-04-30T22:19:23.176Z,9.70
2019-04-30T22:21:56.811Z,9.20
2019-04-30T22:24:30.743Z,9.08
2019-04-30T22:27:04.394Z,9.05
2019-04-30T22:29:41.879Z,9.88
2019-04-30T22:32:13.637Z,9.58
2019-04-30T22:34:47.602Z,9.03
2019-04-30T22:37:21.229Z,8.88
2019-04-30T22:40:03.666Z,9.50
2019-04-30T22:42:39.570Z,9.10
2019-04-30T22:45:22.263Z,9.18
2019-04-30T22:47:56.006Z,8.70
2019-04-30T22:50:30.048Z,9.10
2019-04-30T22:53:03.792Z,9.05
2019-04-30T22:55:37.503Z,8.95
2019-04-30T22:58:11.197Z,8.68
2019-04-30T23:00:46.657Z,8.20
2019-04-30T23:03:30.688Z,8.95
2019-04-30T23:06:04.412Z,8.85
2019-04-30T23:08:38.112Z,9.10
2019-04-30T23:11:11.831Z,8.38
2019-04-30T23:13:45.636Z,8.30
2019-04-30T23:16:19.537Z,8.95
2019-04-30T23:18:53.182Z,8.25
2019-04-30T23:21:27.168Z,8.88
2019-04-30T23:24:00.899Z,9.10
2019-04-30T23:26:34.633Z,8.70
2019-04-30T23:29:08.396Z,8.20
2019-04-30T23:31:43.635Z,8.43
2019-04-30T23:34:18.298Z,8.15
2019-04-30T23:36:52.473Z,8.05
2019-04-30T23:39:26.298Z,7.78
2019-04-30T23:42:00.116Z,8.68
2019-04-30T23:44:33.697Z,8.30
2019-04-30T23:47:07.513Z,9.00
2019-04-30T23:49:41.698Z,8.88
2019-04-30T23:52:15.402Z,8.28
2019-04-30T23:54:49.244Z,8.55
2019-04-30T23:57:22.859Z,8.65
2019-04-30T23:59:56.607Z,7.75
